KNKX/NKX METAR and TAF weather

Enter ICAO airport designator
Station Type Date Time Source
KNKX METAR 2020/12/06 00:55 UTC NOAA

KNKX 060055Z AUTO 00000KT 10SM CLR 14/M06 A3019 RMK AO2 SLP221 T01441056 $


Station Type Date Time Source
KNKX Decoded METAR 2020/12/06 00:55 UTC NOAA

MCAS MIRAMAR, CA, United States (KNKX) 32-52N 117-09W 146M
Dec 05, 2020 - 07:55 PM EST / 2020.12.06 0055 UTC
Wind: Calm:0
Visibility: 10 mile(s):0
Sky conditions: clear
Temperature: 57.9 F (14.4 C)
Dew Point: 21.9 F (-5.6 C)
Relative Humidity: 24%
Pressure (altimeter): 30.19 in. Hg (1022 hPa)
ob: KNKX 060055Z AUTO 00000KT 10SM CLR 14/M06 A3019 RMK AO2 SLP221 T01441056
cycle: 1

Station Type Date Time Source
KNKX TAF 2020/12/05 21:57 UTC NOAA

TAF KNKX 0421/0521 31009KT 9999 SKC QNH3008INS
BECMG 0504/0506 08010KT 9999 SKC QNH3016INS T23/0421Z T06/0513Z

Example: see airport list